createdAt,value
2018-02-19T00:00:18.556Z,-1.50
2018-02-19T00:01:21.780Z,-1.50
2018-02-19T00:02:25.103Z,-1.60
2018-02-19T00:03:28.349Z,-1.50
2018-02-19T00:04:31.593Z,-1.50
2018-02-19T00:05:35.590Z,-1.50
2018-02-19T00:06:38.865Z,-1.50
2018-02-19T00:07:42.092Z,-1.50
2018-02-19T00:08:45.324Z,-1.50
2018-02-19T00:09:48.562Z,-1.50
2018-02-19T00:10:51.807Z,-1.50
2018-02-19T00:11:55.025Z,-1.50
2018-02-19T00:12:58.265Z,-1.50
2018-02-19T00:14:01.500Z,-1.40
2018-02-19T00:15:04.737Z,-1.40
2018-02-19T00:16:08.009Z,-1.40
2018-02-19T00:17:11.245Z,-1.40
2018-02-19T00:18:14.491Z,-1.30
2018-02-19T00:19:18.493Z,-1.20
2018-02-19T00:20:21.721Z,-1.30
2018-02-19T00:21:25.040Z,-1.20
2018-02-19T00:22:28.241Z,-1.20
2018-02-19T00:23:32.281Z,-1.10
2018-02-19T00:24:36.258Z,-1.20
2018-02-19T00:25:40.242Z,-1.20
2018-02-19T00:26:44.241Z,-1.20
2018-02-19T00:27:48.263Z,-1.20
2018-02-19T00:28:52.256Z,-1.20
2018-02-19T00:29:57.029Z,-1.10
2018-02-19T00:31:00.253Z,-1.10
2018-02-19T00:32:04.243Z,-1.10
2018-02-19T00:33:07.499Z,-1.10
2018-02-19T00:34:10.750Z,-1.10
2018-02-19T00:35:13.993Z,-1.10
2018-02-19T00:36:18.002Z,-1.10
2018-02-19T00:37:22.001Z,-1.10
2018-02-19T00:38:25.222Z,-1.10
2018-02-19T00:39:28.461Z,-1.10
2018-02-19T00:40:31.705Z,-1.10
2018-02-19T00:41:34.942Z,-1.00
2018-02-19T00:42:38.937Z,-1.00
2018-02-19T00:43:42.956Z,-1.10
2018-02-19T00:44:46.193Z,-1.10
2018-02-19T00:45:49.402Z,-1.00
2018-02-19T00:46:53.465Z,-1.10
2018-02-19T00:47:56.681Z,-1.10
2018-02-19T00:49:00.047Z,-1.10
2018-02-19T00:50:03.354Z,-1.00
2018-02-19T00:51:06.582Z,-1.10
2018-02-19T00:52:09.852Z,-1.00
2018-02-19T00:53:13.826Z,-1.10
2018-02-19T00:54:17.850Z,-1.10
2018-02-19T00:55:21.091Z,-1.10
2018-02-19T00:56:24.315Z,-1.10
2018-02-19T00:57:27.557Z,-1.10
2018-02-19T00:58:30.814Z,-1.00
2018-02-19T00:59:34.033Z,-1.00
2018-02-19T01:00:38.023Z,-1.00
2018-02-19T01:01:41.266Z,-1.00
2018-02-19T01:02:44.556Z,-0.80
2018-02-19T01:03:47.785Z,-0.80
2018-02-19T01:04:51.792Z,-0.80
2018-02-19T01:05:55.108Z,-0.80
2018-02-19T01:06:58.352Z,-0.80
2018-02-19T01:08:01.595Z,-0.70
2018-02-19T01:09:04.830Z,-0.70
2018-02-19T01:10:08.826Z,-0.70
2018-02-19T01:11:12.837Z,-0.70
2018-02-19T01:12:16.071Z,-0.80
2018-02-19T01:13:19.345Z,-0.70
2018-02-19T01:14:22.582Z,-0.70
2018-02-19T01:15:26.616Z,-0.70
2018-02-19T01:16:29.841Z,-0.70
2018-02-19T01:17:33.103Z,-0.70
2018-02-19T01:18:36.324Z,-0.70
2018-02-19T01:19:40.326Z,-0.70
2018-02-19T01:20:44.332Z,-0.70
2018-02-19T01:21:48.360Z,-0.70
2018-02-19T01:22:52.326Z,-0.60
2018-02-19T01:23:56.348Z,-0.50
2018-02-19T01:25:00.335Z,-0.60
2018-02-19T01:26:04.342Z,-0.60
2018-02-19T01:27:07.683Z,-0.60
2018-02-19T01:28:10.931Z,-0.50
2018-02-19T01:29:14.167Z,-0.50
2018-02-19T01:30:17.384Z,-0.50
2018-02-19T01:31:21.198Z,-0.60
2018-02-19T01:32:24.427Z,-0.60
2018-02-19T01:33:27.651Z,-0.60
2018-02-19T01:34:30.884Z,-0.50
2018-02-19T01:35:34.114Z,-0.60
2018-02-19T01:36:37.348Z,-0.60
2018-02-19T01:37:40.578Z,-0.50
2018-02-19T01:38:43.820Z,-0.50
2018-02-19T01:39:47.048Z,-0.50
2018-02-19T01:40:50.266Z,-0.40
2018-02-19T01:41:53.504Z,-0.40
2018-02-19T01:42:56.738Z,-0.40
2018-02-19T01:43:59.984Z,-0.50
2018-02-19T01:45:03.237Z,-0.50
2018-02-19T01:46:07.234Z,-0.50
2018-02-19T01:47:11.234Z,-0.50
2018-02-19T01:48:14.544Z,-0.50
2018-02-19T01:49:17.785Z,-0.50
2018-02-19T01:50:21.030Z,-0.40
2018-02-19T01:51:24.265Z,-0.50
2018-02-19T01:52:28.258Z,-0.50
2018-02-19T01:53:31.483Z,-0.50
2018-02-19T01:54:34.722Z,-0.50
2018-02-19T01:55:37.937Z,-0.60
2018-02-19T01:56:41.238Z,-0.50
2018-02-19T01:57:44.454Z,-0.50
2018-02-19T01:58:47.758Z,-0.40
2018-02-19T01:59:51.750Z,-0.40
2018-02-19T02:00:54.972Z,-0.50
2018-02-19T02:01:59.024Z,-0.50
2018-02-19T02:03:02.245Z,-0.50
2018-02-19T02:04:06.257Z,-0.50
2018-02-19T02:05:10.246Z,-0.50
2018-02-19T02:06:14.262Z,-0.50
2018-02-19T02:07:17.811Z,-0.60
2018-02-19T02:08:21.057Z,-0.50
2018-02-19T02:09:24.291Z,-0.50
2018-02-19T02:10:28.284Z,-0.60
2018-02-19T02:11:32.282Z,-0.60
2018-02-19T02:12:35.554Z,-0.60
2018-02-19T02:13:38.847Z,-0.60
2018-02-19T02:14:42.024Z,-0.60
2018-02-19T02:15:45.260Z,-0.60
2018-02-19T02:16:48.532Z,-0.60
2018-02-19T02:17:51.728Z,-0.60
2018-02-19T02:18:54.950Z,-0.60
2018-02-19T02:19:58.199Z,-0.50
2018-02-19T02:21:01.461Z,-0.60
2018-02-19T02:22:04.666Z,-0.70
2018-02-19T02:23:07.894Z,-0.70
2018-02-19T02:24:11.214Z,-0.70
2018-02-19T02:25:14.457Z,-0.70
2018-02-19T02:26:17.688Z,-0.80
2018-02-19T02:27:20.917Z,-0.70
2018-02-19T02:28:24.152Z,-0.80
2018-02-19T02:29:27.378Z,-0.70
2018-02-19T02:30:30.667Z,-0.70
2018-02-19T02:31:33.909Z,-0.70
2018-02-19T02:32:37.130Z,-0.70
2018-02-19T02:33:40.380Z,-0.80
2018-02-19T02:34:43.599Z,-0.80
2018-02-19T02:35:46.843Z,-0.80
2018-02-19T02:36:50.067Z,-0.90
2018-02-19T02:37:53.306Z,-0.80
2018-02-19T02:38:56.552Z,-0.80
2018-02-19T02:39:59.779Z,-0.80
2018-02-19T02:41:03.085Z,-0.70
2018-02-19T02:42:06.310Z,-0.60
2018-02-19T02:43:10.309Z,-0.60
2018-02-19T02:44:14.284Z,-0.60
2018-02-19T02:45:17.577Z,-0.60
2018-02-19T02:46:20.798Z,-0.60
2018-02-19T02:47:24.035Z,-0.70
2018-02-19T02:48:27.298Z,-0.70
2018-02-19T02:49:30.550Z,-0.70
2018-02-19T02:50:33.833Z,-0.70
2018-02-19T02:51:37.087Z,-0.70
2018-02-19T02:52:41.121Z,-0.70
2018-02-19T02:53:44.330Z,-0.70
2018-02-19T02:54:47.627Z,-0.70
2018-02-19T02:55:50.869Z,-0.70
2018-02-19T02:56:54.847Z,-0.60
2018-02-19T02:57:58.853Z,-0.60
2018-02-19T02:59:02.862Z,-0.60
2018-02-19T03:00:06.118Z,-0.60
2018-02-19T03:01:09.354Z,-0.70
2018-02-19T03:02:12.600Z,-0.70
2018-02-19T03:03:16.587Z,-0.80
2018-02-19T03:04:20.603Z,-0.70
2018-02-19T03:05:24.603Z,-0.80
2018-02-19T03:06:28.616Z,-0.70
2018-02-19T03:07:31.848Z,-0.70
2018-02-19T03:08:35.081Z,-0.70
2018-02-19T03:09:38.310Z,-0.80
2018-02-19T03:10:41.557Z,-0.70
2018-02-19T03:11:44.793Z,-0.70
2018-02-19T03:12:48.012Z,-0.60
2018-02-19T03:13:51.275Z,-0.60
2018-02-19T03:14:55.995Z,-0.70
2018-02-19T03:16:00.019Z,-0.60
2018-02-19T03:17:03.265Z,-0.70
2018-02-19T03:18:06.505Z,-0.70
2018-02-19T03:19:09.775Z,-0.70
2018-02-19T03:20:13.035Z,-0.70
2018-02-19T03:21:16.332Z,-0.80
2018-02-19T03:22:19.575Z,-0.70
2018-02-19T03:23:22.809Z,-0.70
2018-02-19T03:24:26.028Z,-0.70
2018-02-19T03:25:29.274Z,-0.60
2018-02-19T03:26:32.520Z,-0.60
2018-02-19T03:27:35.759Z,-0.60
2018-02-19T03:28:39.004Z,-0.60
2018-02-19T03:29:43.046Z,-0.70
2018-02-19T03:30:46.307Z,-0.70
2018-02-19T03:31:49.550Z,-0.70
2018-02-19T03:32:53.545Z,-0.80
2018-02-19T03:33:57.607Z,-0.80
2018-02-19T03:35:00.883Z,-0.80
2018-02-19T03:36:04.099Z,-0.80
2018-02-19T03:37:07.332Z,-0.80
2018-02-19T03:38:10.566Z,-0.90
2018-02-19T03:39:13.812Z,-0.90
2018-02-19T03:40:17.042Z,-1.00
2018-02-19T03:41:20.614Z,-1.00
2018-02-19T03:42:23.854Z,-0.90
2018-02-19T03:43:27.079Z,-1.00
2018-02-19T03:44:30.317Z,-1.00
2018-02-19T03:45:33.610Z,-1.00
2018-02-19T03:46:36.844Z,-1.00
2018-02-19T03:47:40.081Z,-1.10
2018-02-19T03:48:43.312Z,-1.00
2018-02-19T03:49:47.322Z,-0.90
2018-02-19T03:50:50.657Z,-1.00
2018-02-19T03:51:53.917Z,-0.90
2018-02-19T03:52:58.026Z,-1.00
2018-02-19T03:54:01.271Z,-1.00
2018-02-19T03:55:04.508Z,-1.00
2018-02-19T03:56:07.772Z,-1.00
2018-02-19T03:57:11.014Z,-1.00
2018-02-19T03:58:14.257Z,-0.90
2018-02-19T03:59:17.502Z,-0.90
2018-02-19T04:00:21.498Z,-0.90
2018-02-19T04:01:25.962Z,-0.90
2018-02-19T04:02:29.198Z,-0.90
2018-02-19T04:03:33.207Z,-0.80
2018-02-19T04:04:37.202Z,-0.80
2018-02-19T04:05:41.198Z,-0.80
2018-02-19T04:06:45.189Z,-0.90
2018-02-19T04:07:49.237Z,-0.90
2018-02-19T04:08:52.467Z,-0.90
2018-02-19T04:09:55.736Z,-0.80
2018-02-19T04:10:58.953Z,-0.80
2018-02-19T04:12:02.953Z,-0.80
2018-02-19T04:13:06.950Z,-0.70
2018-02-19T04:14:10.975Z,-0.70
2018-02-19T04:15:14.962Z,-0.60
2018-02-19T04:16:18.985Z,-0.60
2018-02-19T04:17:22.241Z,-0.60
2018-02-19T04:18:26.268Z,-0.70
2018-02-19T04:19:29.501Z,-0.70
2018-02-19T04:20:32.753Z,-0.70
2018-02-19T04:21:36.003Z,-0.80
2018-02-19T04:22:39.248Z,-0.80
2018-02-19T04:23:42.518Z,-0.70
2018-02-19T04:24:45.733Z,-0.70
2018-02-19T04:25:49.812Z,-0.60
2018-02-19T04:26:53.014Z,-0.60
2018-02-19T04:27:57.011Z,-0.60
2018-02-19T04:29:01.017Z,-0.70
2018-02-19T04:30:05.071Z,-0.80
2018-02-19T04:31:08.290Z,-0.80
2018-02-19T04:32:11.537Z,-0.90
2018-02-19T04:33:14.773Z,-0.90
2018-02-19T04:34:18.765Z,-0.90
2018-02-19T04:35:21.998Z,-0.90
2018-02-19T04:36:25.223Z,-0.90
2018-02-19T04:37:28.455Z,-0.80
2018-02-19T04:38:31.823Z,-0.80
2018-02-19T04:39:35.941Z,-0.80
2018-02-19T04:40:39.241Z,-0.80
2018-02-19T04:41:42.477Z,-0.80
2018-02-19T04:42:47.300Z,-0.80
2018-02-19T04:43:51.281Z,-0.80
2018-02-19T04:44:55.398Z,-0.80
2018-02-19T04:46:14.277Z,-0.80
2018-02-19T04:47:17.521Z,-0.80
2018-02-19T04:48:20.838Z,-0.90
2018-02-19T04:49:24.089Z,-0.90
2018-02-19T04:50:27.309Z,-0.90
2018-02-19T04:51:30.557Z,-0.80
2018-02-19T04:52:33.796Z,-0.80
2018-02-19T04:53:37.043Z,-0.90
2018-02-19T04:54:41.125Z,-0.90
2018-02-19T04:55:44.385Z,-0.90
2018-02-19T04:56:47.724Z,-0.90
2018-02-19T04:57:50.973Z,-0.80
2018-02-19T04:58:54.276Z,-0.90
2018-02-19T04:59:58.273Z,-0.90
2018-02-19T05:01:02.282Z,-0.90
2018-02-19T05:02:06.382Z,-1.00
2018-02-19T05:03:10.424Z,-0.90
2018-02-19T05:04:13.668Z,-0.90
2018-02-19T05:05:17.014Z,-0.90
2018-02-19T05:06:20.237Z,-0.90
2018-02-19T05:07:23.480Z,-0.80
2018-02-19T05:08:26.727Z,-0.80
2018-02-19T05:09:29.992Z,-0.80
2018-02-19T05:10:33.985Z,-0.80
2018-02-19T05:11:37.977Z,-0.80
2018-02-19T05:12:41.996Z,-0.80
2018-02-19T05:13:45.998Z,-0.80
2018-02-19T05:14:49.331Z,-0.80
2018-02-19T05:15:52.563Z,-0.80
2018-02-19T05:16:55.809Z,-0.90
2018-02-19T05:17:59.032Z,-0.80
2018-02-19T05:19:02.261Z,-0.80
2018-02-19T05:20:05.494Z,-0.80
2018-02-19T05:21:09.490Z,-0.80
2018-02-19T05:22:13.478Z,-0.80
2018-02-19T05:23:17.575Z,-0.80
2018-02-19T05:24:21.588Z,-0.90
2018-02-19T05:25:25.600Z,-0.80
2018-02-19T05:26:28.864Z,-0.80
2018-02-19T05:27:32.093Z,-0.80
2018-02-19T05:28:35.370Z,-0.70
2018-02-19T05:29:38.631Z,-0.70
2018-02-19T05:30:42.633Z,-0.70
2018-02-19T05:31:45.909Z,-0.70
2018-02-19T05:32:50.191Z,-0.80
2018-02-19T05:35:03.033Z,-0.80
2018-02-19T05:36:07.026Z,-0.80
2018-02-19T05:37:11.045Z,-0.80
2018-02-19T05:38:14.317Z,-0.90
2018-02-19T05:39:17.603Z,-0.80
2018-02-19T05:40:21.630Z,-0.70
2018-02-19T05:41:24.849Z,-0.80
2018-02-19T05:42:28.085Z,-0.80
2018-02-19T05:43:31.328Z,-0.80
2018-02-19T05:44:34.560Z,-0.80
2018-02-19T05:45:37.809Z,-0.70
2018-02-19T05:46:41.827Z,-0.70
2018-02-19T05:47:45.830Z,-0.80
2018-02-19T05:48:49.992Z,-0.80
2018-02-19T05:49:53.306Z,-0.80
2018-02-19T05:50:57.319Z,-0.80
2018-02-19T05:52:00.558Z,-0.80
2018-02-19T05:53:03.805Z,-0.70
2018-02-19T05:54:07.029Z,-0.70
2018-02-19T05:55:10.257Z,-0.70
2018-02-19T05:56:13.539Z,-0.70
2018-02-19T05:57:16.823Z,-0.70
2018-02-19T05:58:20.811Z,-0.60
2018-02-19T05:59:24.065Z,-0.60
2018-02-19T06:00:27.346Z,-0.70
2018-02-19T06:01:30.575Z,-0.60
2018-02-19T06:02:33.825Z,-0.60
2018-02-19T06:03:37.118Z,-0.60
2018-02-19T06:04:41.308Z,-0.70
2018-02-19T06:05:44.675Z,-0.70
2018-02-19T06:06:47.929Z,-0.60
2018-02-19T06:07:51.192Z,-0.60
2018-02-19T06:08:55.347Z,-0.50
2018-02-19T06:09:58.689Z,-0.50
2018-02-19T06:11:01.949Z,-0.50
2018-02-19T06:12:05.970Z,-0.50
2018-02-19T06:13:09.251Z,-0.50
2018-02-19T06:14:12.493Z,-0.50
2018-02-19T06:15:15.722Z,-0.50
2018-02-19T06:16:18.986Z,-0.50
2018-02-19T06:17:22.990Z,-0.50
2018-02-19T06:18:26.981Z,-0.50
2018-02-19T06:19:30.219Z,-0.50
2018-02-19T06:20:33.458Z,-0.50
2018-02-19T06:21:37.455Z,-0.70
2018-02-19T06:22:41.471Z,-0.60
2018-02-19T06:23:44.709Z,-0.70
2018-02-19T06:24:47.922Z,-0.70
2018-02-19T06:25:51.950Z,-0.70
2018-02-19T06:26:55.195Z,-0.80
2018-02-19T06:27:58.577Z,-0.60
2018-02-19T06:29:02.582Z,-0.60
2018-02-19T06:30:06.582Z,-0.60
2018-02-19T06:31:10.611Z,-0.60
2018-02-19T06:32:13.859Z,-0.60
2018-02-19T06:33:17.332Z,-0.50
2018-02-19T06:34:20.570Z,-0.50
2018-02-19T06:35:23.817Z,-0.50
2018-02-19T06:36:27.813Z,-0.60
2018-02-19T06:37:31.049Z,-0.60
2018-02-19T06:38:34.365Z,-0.50
2018-02-19T06:39:37.584Z,-0.50
2018-02-19T06:40:41.653Z,-0.50
2018-02-19T06:41:44.874Z,-0.50
2018-02-19T06:42:48.883Z,-0.60
2018-02-19T06:43:52.884Z,-0.60
2018-02-19T06:44:56.120Z,-0.60
2018-02-19T06:45:59.377Z,-0.60
2018-02-19T06:47:02.613Z,-0.50
2018-02-19T06:48:06.653Z,-0.40
2018-02-19T06:49:09.880Z,-0.40
2018-02-19T06:50:13.130Z,-0.40
2018-02-19T06:51:16.357Z,-0.30
2018-02-19T06:52:20.367Z,-0.30
2018-02-19T06:53:23.644Z,-0.30
2018-02-19T06:54:28.364Z,-0.40
2018-02-19T06:55:32.367Z,-0.40
2018-02-19T06:56:36.414Z,-0.40
2018-02-19T06:57:39.651Z,-0.40
2018-02-19T06:58:43.664Z,-0.40
2018-02-19T06:59:47.733Z,-0.50
2018-02-19T07:00:50.963Z,-0.50
2018-02-19T07:01:54.220Z,-0.60
2018-02-19T07:02:58.226Z,-0.60
2018-02-19T07:04:02.239Z,-0.60
2018-02-19T07:05:05.615Z,-0.60
2018-02-19T07:06:09.639Z,-0.60
2018-02-19T07:07:12.882Z,-0.60
2018-02-19T07:08:16.122Z,-0.60
2018-02-19T07:09:19.355Z,-0.60
2018-02-19T07:10:23.357Z,-0.60
2018-02-19T07:11:27.398Z,-0.60
2018-02-19T07:12:30.659Z,-0.60
2018-02-19T07:13:34.637Z,-0.50
2018-02-19T07:14:38.051Z,-0.50
2018-02-19T07:15:41.314Z,-0.40
2018-02-19T07:16:45.313Z,-0.40
2018-02-19T07:17:49.333Z,-0.30
2018-02-19T07:18:52.600Z,-0.30
2018-02-19T07:19:56.589Z,-0.30
2018-02-19T07:21:00.593Z,-0.10
2018-02-19T07:22:04.633Z,-0.10
2018-02-19T07:23:07.863Z,-0.10
2018-02-19T07:24:11.096Z,0.00
2018-02-19T07:25:14.334Z,-0.10
2018-02-19T07:26:17.574Z,-0.10
2018-02-19T07:27:20.816Z,-0.10
2018-02-19T07:28:24.816Z,0.00
2018-02-19T07:29:28.837Z,0.10
2018-02-19T07:30:32.098Z,0.10
2018-02-19T07:31:35.312Z,0.00
2018-02-19T07:32:38.543Z,-0.10
2018-02-19T07:33:41.797Z,-0.20
2018-02-19T07:34:45.027Z,-0.20
2018-02-19T07:35:49.045Z,-0.30
2018-02-19T07:36:53.006Z,-0.30
2018-02-19T07:37:56.246Z,-0.30
2018-02-19T07:38:59.468Z,-0.30
2018-02-19T07:40:02.714Z,-0.30
2018-02-19T07:41:05.970Z,-0.20
2018-02-19T07:42:09.977Z,-0.30
2018-02-19T07:43:13.273Z,-0.40
2018-02-19T07:44:16.504Z,-0.20
2018-02-19T07:45:19.734Z,-0.30
2018-02-19T07:46:23.721Z,-0.10
2018-02-19T07:47:27.816Z,-0.10
2018-02-19T07:48:30.970Z,-0.20
2018-02-19T07:49:34.305Z,-0.10
2018-02-19T07:50:37.542Z,-0.20
2018-02-19T07:51:40.780Z,-0.10
2018-02-19T07:52:44.046Z,-0.10
2018-02-19T07:53:48.082Z,0.00
2018-02-19T07:54:51.368Z,0.00
2018-02-19T07:55:54.640Z,0.00
2018-02-19T07:56:57.887Z,-0.10
2018-02-19T07:58:01.933Z,-0.20
2018-02-19T07:59:05.785Z,-0.20
2018-02-19T08:00:09.812Z,-0.20
2018-02-19T08:01:13.838Z,-0.20
2018-02-19T08:02:17.124Z,-0.20
2018-02-19T08:03:20.456Z,-0.20
2018-02-19T08:04:23.686Z,-0.20
2018-02-19T08:05:26.922Z,-0.10
2018-02-19T08:06:30.153Z,-0.10
2018-02-19T08:07:33.394Z,0.00
2018-02-19T08:08:37.422Z,0.10
2018-02-19T08:09:40.732Z,0.10
2018-02-19T08:10:44.009Z,0.10
2018-02-19T08:11:47.259Z,0.00
2018-02-19T08:12:51.286Z,0.10
2018-02-19T08:13:54.550Z,0.00
2018-02-19T08:14:58.547Z,0.00
2018-02-19T08:16:02.558Z,0.10
2018-02-19T08:17:05.780Z,0.10
2018-02-19T08:18:09.060Z,0.10
2018-02-19T08:19:12.307Z,0.10
2018-02-19T08:20:15.606Z,0.20
2018-02-19T08:21:18.830Z,0.10
2018-02-19T08:22:22.107Z,0.10
2018-02-19T08:23:25.321Z,0.10
2018-02-19T08:24:29.397Z,0.00
2018-02-19T08:25:32.768Z,0.00
2018-02-19T08:26:36.041Z,0.10
2018-02-19T08:27:39.308Z,0.20
2018-02-19T08:28:42.542Z,0.20
2018-02-19T08:29:45.813Z,0.20
2018-02-19T08:30:49.042Z,0.10
2018-02-19T08:31:52.298Z,0.10
2018-02-19T08:32:55.524Z,0.10
2018-02-19T08:33:58.750Z,0.10
2018-02-19T08:35:01.961Z,0.10
2018-02-19T08:36:06.122Z,0.10
2018-02-19T08:37:09.311Z,0.10
2018-02-19T08:38:12.569Z,0.10
2018-02-19T08:39:15.793Z,0.10
2018-02-19T08:40:19.110Z,0.10
2018-02-19T08:41:22.337Z,0.00
2018-02-19T08:42:25.609Z,0.00
2018-02-19T08:43:28.866Z,0.10
2018-02-19T08:44:32.099Z,0.10
2018-02-19T08:45:35.337Z,0.10
2018-02-19T08:46:38.573Z,0.10
2018-02-19T08:47:42.757Z,0.20
2018-02-19T08:48:45.981Z,0.10
2018-02-19T08:49:50.017Z,0.10
2018-02-19T08:50:53.233Z,0.00
2018-02-19T08:51:56.470Z,0.10
2018-02-19T08:52:59.692Z,0.10
2018-02-19T08:54:02.921Z,0.10
2018-02-19T08:55:06.155Z,0.20
2018-02-19T08:56:09.362Z,0.20
2018-02-19T08:57:13.386Z,0.30
2018-02-19T08:58:17.351Z,0.20
2018-02-19T08:59:20.570Z,0.20
2018-02-19T09:00:23.804Z,0.20
2018-02-19T09:01:27.056Z,0.10
2018-02-19T09:02:30.286Z,0.20
2018-02-19T09:03:33.501Z,0.30
2018-02-19T09:04:36.744Z,0.40
2018-02-19T09:05:39.968Z,0.30
2018-02-19T09:06:43.197Z,0.20
2018-02-19T09:07:46.417Z,0.20
2018-02-19T09:08:50.405Z,0.20
2018-02-19T09:09:54.398Z,0.30
2018-02-19T09:10:57.642Z,0.30
2018-02-19T09:12:00.856Z,0.30
2018-02-19T09:13:04.192Z,0.20
2018-02-19T09:14:07.412Z,0.10
2018-02-19T09:15:10.654Z,0.10
2018-02-19T09:16:13.918Z,0.20
2018-02-19T09:17:17.109Z,0.20
2018-02-19T09:18:20.344Z,0.20
2018-02-19T09:19:23.612Z,0.20
2018-02-19T09:20:26.882Z,0.30
2018-02-19T09:21:30.101Z,0.40
2018-02-19T09:22:33.332Z,0.30
2018-02-19T09:23:36.557Z,0.30
2018-02-19T09:24:39.783Z,0.30
2018-02-19T09:25:43.809Z,0.40
2018-02-19T09:26:47.016Z,0.40
2018-02-19T09:27:50.242Z,0.50
2018-02-19T09:28:54.308Z,0.20
2018-02-19T09:29:57.487Z,0.10
2018-02-19T09:31:00.772Z,0.10
2018-02-19T09:32:03.958Z,0.00
2018-02-19T09:33:07.321Z,0.00
2018-02-19T09:34:10.552Z,-0.10
2018-02-19T09:35:14.538Z,-0.10
2018-02-19T09:36:18.538Z,-0.30
2018-02-19T09:37:21.823Z,-0.30
2018-02-19T09:38:25.076Z,-0.30
2018-02-19T09:39:28.354Z,-0.30
2018-02-19T09:40:31.720Z,-0.30
2018-02-19T09:41:34.974Z,-0.40
2018-02-19T09:42:38.980Z,-0.40
2018-02-19T09:43:43.049Z,-0.40
2018-02-19T09:44:46.272Z,-0.50
2018-02-19T09:45:49.504Z,-0.30
2018-02-19T09:46:52.728Z,-0.30
2018-02-19T09:47:56.734Z,-0.20
2018-02-19T09:49:00.802Z,-0.20
2018-02-19T09:50:04.007Z,-0.20
2018-02-19T09:51:07.246Z,-0.10
2018-02-19T09:52:10.532Z,-0.10
2018-02-19T09:53:13.741Z,0.00
2018-02-19T09:54:16.991Z,-0.10
2018-02-19T09:55:20.360Z,-0.10
2018-02-19T09:56:23.599Z,0.00
2018-02-19T09:57:26.848Z,0.10
2018-02-19T09:58:30.085Z,0.00
2018-02-19T09:59:33.273Z,0.10
2018-02-19T10:00:37.282Z,0.20
2018-02-19T10:01:41.257Z,0.20
2018-02-19T10:02:45.269Z,0.20
2018-02-19T10:03:49.260Z,0.20
2018-02-19T10:04:53.277Z,0.20
2018-02-19T10:05:57.273Z,0.20
2018-02-19T10:07:01.273Z,0.20
2018-02-19T10:08:05.262Z,0.10
2018-02-19T10:09:09.264Z,0.00
2018-02-19T10:10:13.255Z,0.00
2018-02-19T10:11:16.476Z,0.00
2018-02-19T10:12:19.696Z,0.10
2018-02-19T10:13:22.930Z,0.10
2018-02-19T10:14:26.933Z,0.10
2018-02-19T10:15:31.041Z,0.10
2018-02-19T10:16:34.298Z,0.10
2018-02-19T10:17:37.533Z,0.10
2018-02-19T10:18:40.810Z,0.20
2018-02-19T10:19:44.824Z,0.30
2018-02-19T10:20:48.124Z,0.30
2018-02-19T10:21:51.333Z,0.40
2018-02-19T10:22:55.330Z,0.30
2018-02-19T10:23:59.327Z,0.30
2018-02-19T10:25:02.568Z,0.30
2018-02-19T10:26:05.795Z,0.20
2018-02-19T10:27:09.015Z,0.30
2018-02-19T10:28:12.253Z,0.30
2018-02-19T10:29:15.492Z,0.40
2018-02-19T10:30:18.794Z,0.50
2018-02-19T10:31:22.763Z,0.50
2018-02-19T10:32:26.128Z,0.50
2018-02-19T10:33:30.120Z,0.40
2018-02-19T10:34:34.131Z,0.30
2018-02-19T10:35:38.129Z,0.40
2018-02-19T10:36:42.108Z,0.40
2018-02-19T10:37:45.414Z,0.40
2018-02-19T10:38:49.417Z,0.50
2018-02-19T10:39:53.405Z,0.50
2018-02-19T10:40:57.391Z,0.40
2018-02-19T10:42:00.635Z,0.40
2018-02-19T10:43:03.861Z,0.40
2018-02-19T10:44:07.067Z,0.50
2018-02-19T10:45:11.066Z,0.50
2018-02-19T10:46:15.129Z,0.50
2018-02-19T10:47:18.333Z,0.50
2018-02-19T10:48:22.340Z,0.60
2018-02-19T10:49:26.316Z,0.60
2018-02-19T10:50:29.540Z,0.50
2018-02-19T10:51:32.814Z,0.60
2018-02-19T10:52:36.801Z,0.50
2018-02-19T10:53:40.797Z,0.50
2018-02-19T10:54:44.032Z,0.40
2018-02-19T10:55:47.266Z,0.40
2018-02-19T10:56:50.542Z,0.40
2018-02-19T10:57:53.746Z,0.40
2018-02-19T10:58:57.770Z,0.60
2018-02-19T11:00:01.775Z,0.60
2018-02-19T11:01:05.735Z,0.60
2018-02-19T11:02:09.057Z,0.60
2018-02-19T11:03:13.050Z,0.50
2018-02-19T11:04:16.281Z,0.50
2018-02-19T11:05:19.507Z,0.50
2018-02-19T11:06:23.521Z,0.50
2018-02-19T11:07:26.760Z,0.50
2018-02-19T11:08:30.079Z,0.50
2018-02-19T11:09:34.065Z,0.40
2018-02-19T11:10:38.068Z,0.40
2018-02-19T11:11:42.051Z,0.50
2018-02-19T11:12:45.294Z,0.50
2018-02-19T11:13:48.525Z,0.50
2018-02-19T11:14:51.741Z,0.60
2018-02-19T11:15:54.965Z,0.60
2018-02-19T11:16:58.531Z,0.70
2018-02-19T11:18:01.741Z,0.70
2018-02-19T11:19:04.969Z,0.50
2018-02-19T11:20:08.199Z,0.40
2018-02-19T11:21:11.459Z,0.40
2018-02-19T11:22:14.690Z,0.50
2018-02-19T11:23:17.906Z,0.60
2018-02-19T11:24:21.301Z,0.60
2018-02-19T11:25:24.528Z,0.70
2018-02-19T11:26:27.756Z,0.70
2018-02-19T11:27:30.994Z,0.70
2018-02-19T11:28:34.315Z,0.70
2018-02-19T11:29:37.562Z,0.60
2018-02-19T11:30:40.786Z,0.60
2018-02-19T11:31:44.117Z,0.70
2018-02-19T11:32:47.335Z,0.60
2018-02-19T11:33:51.320Z,0.60
2018-02-19T11:34:54.630Z,0.60
2018-02-19T11:35:57.898Z,0.60
2018-02-19T11:37:01.878Z,0.80
2018-02-19T11:38:05.106Z,0.70
2018-02-19T11:39:08.338Z,0.80
2018-02-19T11:40:11.585Z,0.70
2018-02-19T11:41:14.811Z,0.70
2018-02-19T11:42:19.530Z,0.70
2018-02-19T11:43:22.748Z,0.80
2018-02-19T11:44:26.017Z,0.90
2018-02-19T11:45:29.998Z,0.90
2018-02-19T11:46:33.218Z,0.90
2018-02-19T11:47:36.480Z,0.90
2018-02-19T11:48:40.455Z,0.80
2018-02-19T11:49:43.679Z,0.80
2018-02-19T11:50:47.679Z,0.80
2018-02-19T11:51:51.672Z,0.90
2018-02-19T11:52:55.734Z,0.90
2018-02-19T11:53:58.919Z,0.80
2018-02-19T11:55:02.145Z,0.80
2018-02-19T11:56:06.140Z,0.80
2018-02-19T11:57:10.155Z,0.70
2018-02-19T11:58:13.363Z,0.70
2018-02-19T11:59:16.598Z,0.70
2018-02-19T12:00:20.671Z,0.70
2018-02-19T12:01:23.865Z,0.70
2018-02-19T12:02:27.086Z,0.80
2018-02-19T12:03:30.322Z,0.80
2018-02-19T12:04:33.541Z,0.70
2018-02-19T12:05:37.545Z,0.60
2018-02-19T12:06:41.541Z,0.60
2018-02-19T12:07:45.542Z,0.60
2018-02-19T12:08:48.812Z,0.60
2018-02-19T12:09:52.029Z,0.60
2018-02-19T12:10:55.280Z,0.60
2018-02-19T12:11:58.513Z,0.60
2018-02-19T12:13:01.728Z,0.50
2018-02-19T12:14:04.953Z,0.50
2018-02-19T12:15:08.180Z,0.60
2018-02-19T12:16:11.669Z,0.70
2018-02-19T12:17:15.023Z,0.70
2018-02-19T12:18:18.270Z,0.80
2018-02-19T12:19:22.278Z,0.80
2018-02-19T12:20:26.350Z,0.70
2018-02-19T12:21:29.561Z,0.70
2018-02-19T12:22:33.559Z,0.60
2018-02-19T12:23:36.784Z,0.60
2018-02-19T12:24:40.006Z,0.60
2018-02-19T12:25:43.232Z,0.60
2018-02-19T12:26:46.458Z,0.60
2018-02-19T12:27:49.794Z,0.80
2018-02-19T12:28:53.033Z,0.80
2018-02-19T12:29:56.265Z,0.70
2018-02-19T12:30:59.492Z,0.70
2018-02-19T12:32:02.735Z,0.70
2018-02-19T12:33:05.973Z,0.60
2018-02-19T12:34:09.189Z,0.60
2018-02-19T12:35:12.436Z,0.60
2018-02-19T12:36:15.685Z,0.70
2018-02-19T12:37:19.813Z,0.70
2018-02-19T12:38:23.860Z,0.70
2018-02-19T12:39:27.866Z,0.70
2018-02-19T12:40:31.115Z,0.70
2018-02-19T12:41:34.339Z,0.80
2018-02-19T12:42:37.576Z,0.70
2018-02-19T12:43:40.820Z,0.80
2018-02-19T12:44:44.053Z,0.80
2018-02-19T12:45:48.057Z,0.80
2018-02-19T12:46:52.212Z,0.70
2018-02-19T12:47:55.470Z,0.70
2018-02-19T12:48:58.743Z,0.70
2018-02-19T12:50:02.728Z,0.60
2018-02-19T12:51:06.728Z,0.70
2018-02-19T12:52:10.730Z,0.70
2018-02-19T12:53:14.716Z,0.70
2018-02-19T12:54:18.749Z,0.70
2018-02-19T12:55:21.999Z,0.70
2018-02-19T12:56:25.222Z,0.80
2018-02-19T12:57:28.457Z,0.80
2018-02-19T12:58:31.681Z,0.70
2018-02-19T12:59:34.913Z,0.80
2018-02-19T13:00:38.227Z,0.80
2018-02-19T13:01:41.471Z,0.80
2018-02-19T13:02:44.720Z,0.80
2018-02-19T13:03:47.938Z,0.80
2018-02-19T13:04:52.002Z,0.90
2018-02-19T13:05:55.223Z,0.80
2018-02-19T13:06:58.467Z,0.80
2018-02-19T13:08:01.692Z,0.80
2018-02-19T13:09:04.913Z,0.70
2018-02-19T13:10:08.938Z,0.70
2018-02-19T13:11:12.230Z,0.70
2018-02-19T13:12:15.506Z,0.80
2018-02-19T13:13:18.734Z,0.80
2018-02-19T13:14:21.982Z,0.90
2018-02-19T13:15:25.198Z,0.90
2018-02-19T13:16:28.415Z,0.90
2018-02-19T13:17:32.419Z,0.90
2018-02-19T13:18:36.404Z,0.80
2018-02-19T13:19:39.715Z,0.80
2018-02-19T13:20:42.953Z,0.80
2018-02-19T13:21:46.199Z,0.80
2018-02-19T13:22:49.412Z,0.80
2018-02-19T13:23:52.741Z,0.80
2018-02-19T13:24:56.735Z,0.90
2018-02-19T13:26:00.717Z,0.90
2018-02-19T13:27:03.979Z,0.90
2018-02-19T13:28:07.227Z,0.80
2018-02-19T13:29:10.464Z,0.90
2018-02-19T13:30:13.697Z,1.00
2018-02-19T13:31:16.970Z,1.00
2018-02-19T13:32:20.243Z,1.10
2018-02-19T13:33:24.245Z,0.90
2018-02-19T13:34:27.468Z,0.90
2018-02-19T13:35:30.694Z,0.90
2018-02-19T13:36:34.739Z,0.80
2018-02-19T13:37:37.953Z,0.80
2018-02-19T13:38:41.230Z,0.80
2018-02-19T13:39:44.448Z,0.80
2018-02-19T13:40:48.437Z,0.70
2018-02-19T13:41:52.435Z,0.70
2018-02-19T13:42:55.665Z,0.70
2018-02-19T13:43:58.874Z,0.70
2018-02-19T13:45:02.240Z,0.70
2018-02-19T13:46:05.531Z,0.60
2018-02-19T13:47:08.761Z,0.60
2018-02-19T13:48:12.748Z,0.60
2018-02-19T13:49:15.979Z,0.60